createdAt,value
2023-03-22T00:00:21.508Z,86.08
2023-03-22T00:01:21.459Z,85.77
2023-03-22T00:02:21.508Z,85.83
2023-03-22T00:03:21.470Z,85.94
2023-03-22T00:04:21.438Z,86.04
2023-03-22T00:05:21.445Z,86.35
2023-03-22T00:06:21.406Z,86.55
2023-03-22T00:07:21.418Z,86.35
2023-03-22T00:08:21.474Z,86.18
2023-03-22T00:09:21.395Z,86.24
2023-03-22T00:10:21.403Z,86.35
2023-03-22T00:11:21.367Z,86.24
2023-03-22T00:12:21.325Z,86.24
2023-03-22T00:13:21.315Z,86.44
2023-03-22T00:14:21.307Z,86.35
2023-03-22T00:15:21.304Z,86.35
2023-03-22T00:16:21.352Z,86.24
2023-03-22T00:17:21.264Z,86.24
2023-03-22T00:18:21.278Z,86.14
2023-03-22T00:19:21.283Z,86.14
2023-03-22T00:20:21.289Z,86.14
2023-03-22T00:21:21.215Z,86.44
2023-03-22T00:22:21.212Z,86.44
2023-03-22T00:23:21.248Z,86.44
2023-03-22T00:24:21.209Z,86.76
2023-03-22T00:25:21.181Z,86.79
2023-03-22T00:26:21.178Z,86.69
2023-03-22T00:27:21.151Z,86.69
2023-03-22T00:28:21.122Z,86.79
2023-03-22T00:29:21.111Z,86.90
2023-03-22T00:30:21.100Z,86.90
2023-03-22T00:31:21.212Z,86.79
2023-03-22T00:32:21.072Z,86.79
2023-03-22T00:33:21.080Z,86.79
2023-03-22T00:34:21.075Z,86.79
2023-03-22T00:35:21.091Z,87.00
2023-03-22T00:36:21.060Z,86.79
2023-03-22T00:37:20.992Z,86.90
2023-03-22T00:38:27.196Z,86.79
2023-03-22T00:39:21.974Z,86.90
2023-03-22T00:40:20.987Z,86.90
2023-03-22T00:41:20.959Z,86.90
2023-03-22T00:42:20.952Z,86.79
2023-03-22T00:43:20.942Z,86.90
2023-03-22T00:44:20.947Z,87.00
2023-03-22T00:45:20.928Z,87.10
2023-03-22T00:46:21.041Z,87.20
2023-03-22T00:47:20.874Z,87.10
2023-03-22T00:48:20.922Z,87.20
2023-03-22T00:49:20.879Z,87.20
2023-03-22T00:50:20.843Z,87.20
2023-03-22T00:51:20.850Z,87.10
2023-03-22T00:52:20.838Z,87.20
2023-03-22T00:53:20.831Z,87.00
2023-03-22T00:54:20.813Z,87.20
2023-03-22T00:55:20.799Z,87.30
2023-03-22T00:56:20.786Z,87.30
2023-03-22T00:57:20.734Z,87.20
2023-03-22T00:58:20.767Z,87.30
2023-03-22T00:59:20.712Z,87.30
2023-03-22T01:00:20.735Z,87.30
2023-03-22T01:01:20.766Z,87.41
2023-03-22T01:02:20.693Z,87.30
2023-03-22T01:03:20.667Z,87.41
2023-03-22T01:04:20.660Z,87.41
2023-03-22T01:05:20.629Z,87.41
2023-03-22T01:06:20.685Z,87.41
2023-03-22T01:07:20.630Z,87.65
2023-03-22T01:08:20.599Z,87.76
2023-03-22T01:09:20.585Z,87.85
2023-03-22T01:10:20.582Z,87.96
2023-03-22T01:11:20.558Z,88.06
2023-03-22T01:12:20.573Z,88.26
2023-03-22T01:13:20.555Z,88.26
2023-03-22T01:14:20.551Z,88.26
2023-03-22T01:15:20.523Z,88.17
2023-03-22T01:16:20.556Z,88.26
2023-03-22T01:17:20.579Z,88.37
2023-03-22T01:18:20.488Z,88.37
2023-03-22T01:19:20.444Z,88.37
2023-03-22T01:20:20.472Z,88.47
2023-03-22T01:21:20.425Z,88.51
2023-03-22T01:22:20.453Z,88.62
2023-03-22T01:23:20.452Z,88.62
2023-03-22T01:24:20.385Z,88.71
2023-03-22T01:25:20.390Z,88.82
2023-03-22T01:26:20.391Z,88.92
2023-03-22T01:27:20.337Z,88.92
2023-03-22T01:28:20.391Z,89.03
2023-03-22T01:29:20.347Z,89.12
2023-03-22T01:30:20.326Z,89.12
2023-03-22T01:31:20.410Z,89.12
2023-03-22T01:32:20.299Z,89.03
2023-03-22T01:33:20.287Z,89.23
2023-03-22T01:34:20.251Z,89.23
2023-03-22T01:35:20.300Z,89.23
2023-03-22T01:36:20.234Z,89.33
2023-03-22T01:37:20.229Z,89.23
2023-03-22T01:38:20.270Z,89.23
2023-03-22T01:39:20.193Z,89.12
2023-03-22T01:40:20.202Z,89.23
2023-03-22T01:41:20.218Z,89.23
2023-03-22T01:42:20.194Z,89.23
2023-03-22T01:43:20.223Z,89.23
2023-03-22T01:44:20.216Z,89.23
2023-03-22T01:45:20.109Z,89.23
2023-03-22T01:46:20.195Z,89.23
2023-03-22T01:47:20.104Z,89.23
2023-03-22T01:48:20.207Z,89.43
2023-03-22T01:49:20.114Z,89.43
2023-03-22T01:50:20.041Z,89.53
2023-03-22T01:51:20.046Z,89.64
2023-03-22T01:52:20.020Z,89.74
2023-03-22T01:53:20.039Z,89.74
2023-03-22T01:54:19.983Z,89.84
2023-03-22T01:55:20.026Z,89.94
2023-03-22T01:56:19.993Z,90.05
2023-03-22T01:57:19.999Z,90.15
2023-03-22T01:58:19.960Z,90.15
2023-03-22T01:59:19.975Z,90.15
2023-03-22T02:00:19.950Z,90.30
2023-03-22T02:01:19.999Z,90.25
2023-03-22T02:02:19.958Z,90.36
2023-03-22T02:03:19.896Z,90.50
2023-03-22T02:04:19.883Z,90.39
2023-03-22T02:05:19.879Z,90.50
2023-03-22T02:06:19.890Z,90.50
2023-03-22T02:07:19.858Z,90.50
2023-03-22T02:08:19.806Z,90.60
2023-03-22T02:09:19.857Z,90.60
2023-03-22T02:10:19.808Z,90.60
2023-03-22T02:11:19.799Z,90.60
2023-03-22T02:12:19.757Z,90.60
2023-03-22T02:13:19.764Z,90.60
2023-03-22T02:14:19.751Z,90.60
2023-03-22T02:15:19.745Z,90.60
2023-03-22T02:16:19.755Z,90.70
2023-03-22T02:17:19.706Z,90.70
2023-03-22T02:18:19.670Z,90.81
2023-03-22T02:19:19.670Z,90.81
2023-03-22T02:20:19.687Z,90.81
2023-03-22T02:21:19.677Z,90.91
2023-03-22T02:22:19.617Z,90.91
2023-03-22T02:23:19.619Z,90.91
2023-03-22T02:24:19.617Z,90.91
2023-03-22T02:25:19.597Z,90.91
2023-03-22T02:26:19.628Z,91.01
2023-03-22T02:27:19.603Z,91.01
2023-03-22T02:28:19.565Z,91.11
2023-03-22T02:29:19.567Z,91.11
2023-03-22T02:30:19.535Z,91.22
2023-03-22T02:31:19.605Z,91.31
2023-03-22T02:32:19.521Z,91.42
2023-03-22T02:33:19.501Z,91.52
2023-03-22T02:34:19.457Z,91.56
2023-03-22T02:35:19.483Z,91.63
2023-03-22T02:36:19.458Z,91.56
2023-03-22T02:37:19.457Z,91.67
2023-03-22T02:38:19.416Z,91.67
2023-03-22T02:39:19.419Z,91.67
2023-03-22T02:40:19.418Z,91.67
2023-03-22T02:41:19.412Z,91.67
2023-03-22T02:42:19.355Z,91.67
2023-03-22T02:43:19.376Z,91.77
2023-03-22T02:44:19.352Z,91.87
2023-03-22T02:45:19.352Z,91.87
2023-03-22T02:46:19.388Z,91.87
2023-03-22T02:47:19.295Z,91.87
2023-03-22T02:48:19.357Z,91.87
2023-03-22T02:49:19.273Z,91.97
2023-03-22T02:50:19.254Z,92.08
2023-03-22T02:51:19.256Z,92.08
2023-03-22T02:52:19.261Z,92.08
2023-03-22T02:53:19.258Z,92.08
2023-03-22T02:54:19.197Z,92.08
2023-03-22T02:55:19.221Z,92.18
2023-03-22T02:56:19.212Z,92.18
2023-03-22T02:57:19.210Z,92.18
2023-03-22T02:58:19.210Z,92.18
2023-03-22T02:59:19.151Z,92.28
2023-03-22T03:00:19.138Z,92.28
2023-03-22T03:01:19.131Z,92.38
2023-03-22T03:02:19.163Z,92.38
2023-03-22T03:03:19.133Z,92.38
2023-03-22T03:04:19.078Z,92.43
2023-03-22T03:05:19.060Z,92.49
2023-03-22T03:06:19.040Z,92.53
2023-03-22T03:07:19.044Z,92.53
2023-03-22T03:08:19.046Z,92.53
2023-03-22T03:09:19.010Z,92.43
2023-03-22T03:10:19.007Z,92.53
2023-03-22T03:11:19.007Z,92.53
2023-03-22T03:12:18.958Z,92.63
2023-03-22T03:13:18.972Z,92.74
2023-03-22T03:14:18.931Z,92.74
2023-03-22T03:15:18.975Z,92.74
2023-03-22T03:16:18.958Z,92.74
2023-03-22T03:17:18.936Z,92.83
2023-03-22T03:18:18.935Z,92.83
2023-03-22T03:19:18.929Z,92.83
2023-03-22T03:20:18.896Z,92.83
2023-03-22T03:21:18.850Z,92.83
2023-03-22T03:22:18.913Z,92.94
2023-03-22T03:23:18.864Z,92.94
2023-03-22T03:24:18.854Z,92.94
2023-03-22T03:25:18.831Z,92.94
2023-03-22T03:26:18.796Z,92.94
2023-03-22T03:27:18.802Z,92.94
2023-03-22T03:28:18.793Z,92.94
2023-03-22T03:29:18.808Z,92.83
2023-03-22T03:30:18.728Z,92.83
2023-03-22T03:31:18.741Z,92.83
2023-03-22T03:32:18.708Z,92.83
2023-03-22T03:33:18.700Z,92.74
2023-03-22T03:34:18.709Z,92.74
2023-03-22T03:35:18.719Z,92.74
2023-03-22T03:36:18.649Z,92.74
2023-03-22T03:37:18.653Z,92.74
2023-03-22T03:38:18.667Z,92.74
2023-03-22T03:39:18.748Z,92.74
2023-03-22T03:40:18.661Z,92.74
2023-03-22T03:41:18.598Z,92.74
2023-03-22T03:42:18.567Z,92.74
2023-03-22T03:43:18.612Z,92.74
2023-03-22T03:44:18.556Z,92.74
2023-03-22T03:45:18.567Z,92.74
2023-03-22T03:46:18.522Z,92.74
2023-03-22T03:47:18.521Z,92.83
2023-03-22T03:48:18.561Z,92.83
2023-03-22T03:49:18.498Z,92.83
2023-03-22T03:50:18.500Z,92.83
2023-03-22T03:51:18.490Z,92.74
2023-03-22T03:52:18.455Z,92.74
2023-03-22T03:53:18.447Z,92.74
2023-03-22T03:54:18.407Z,92.83
2023-03-22T03:55:18.445Z,92.74
2023-03-22T03:56:18.415Z,92.74
2023-03-22T03:57:18.394Z,92.63
2023-03-22T03:58:18.389Z,92.53
2023-03-22T03:59:18.370Z,92.53
2023-03-22T04:00:18.357Z,92.53
2023-03-22T04:01:18.326Z,92.43
2023-03-22T04:02:18.342Z,92.43
2023-03-22T04:03:18.322Z,92.43
2023-03-22T04:04:18.360Z,92.43
2023-03-22T04:05:18.321Z,92.43
2023-03-22T04:06:18.274Z,92.32
2023-03-22T04:07:18.248Z,92.43
2023-03-22T04:08:18.238Z,92.53
2023-03-22T04:09:18.229Z,92.43
2023-03-22T04:10:18.221Z,92.53
2023-03-22T04:11:18.212Z,92.43
2023-03-22T04:12:18.219Z,92.43
2023-03-22T04:13:18.176Z,92.53
2023-03-22T04:14:18.182Z,92.53
2023-03-22T04:15:18.172Z,92.53
2023-03-22T04:16:18.201Z,92.53
2023-03-22T04:17:18.154Z,92.53
2023-03-22T04:18:18.121Z,92.53
2023-03-22T04:19:18.112Z,92.53
2023-03-22T04:20:18.146Z,92.63
2023-03-22T04:21:18.131Z,92.63
2023-03-22T04:22:18.070Z,92.74
2023-03-22T04:23:18.053Z,92.74
2023-03-22T04:24:18.043Z,92.83
2023-03-22T04:25:18.166Z,92.83
2023-03-22T04:26:18.033Z,92.83
2023-03-22T04:27:18.058Z,92.83
2023-03-22T04:28:17.993Z,92.94
2023-03-22T04:29:17.962Z,92.94
2023-03-22T04:30:17.954Z,93.08
2023-03-22T04:31:17.960Z,93.15
2023-03-22T04:32:17.968Z,93.15
2023-03-22T04:33:17.936Z,93.25
2023-03-22T04:34:17.920Z,93.25
2023-03-22T04:35:17.900Z,93.25
2023-03-22T04:36:17.867Z,93.25
2023-03-22T04:37:17.912Z,93.25
2023-03-22T04:38:17.861Z,93.25
2023-03-22T04:39:17.882Z,93.25
2023-03-22T04:40:17.854Z,93.25
2023-03-22T04:41:17.852Z,93.15
2023-03-22T04:42:17.812Z,93.15
2023-03-22T04:43:17.790Z,93.15
2023-03-22T04:44:17.788Z,93.15
2023-03-22T04:45:17.788Z,93.15
2023-03-22T04:46:17.813Z,93.15
2023-03-22T04:47:17.746Z,93.04
2023-03-22T04:48:17.815Z,93.15
2023-03-22T04:49:17.698Z,93.04
2023-03-22T04:50:17.747Z,93.15
2023-03-22T04:51:17.675Z,93.19
2023-03-22T04:52:17.677Z,93.29
2023-03-22T04:53:17.665Z,93.29
2023-03-22T04:54:17.625Z,93.29
2023-03-22T04:55:17.654Z,93.29
2023-03-22T04:56:17.617Z,93.29
2023-03-22T04:57:17.639Z,93.29
2023-03-22T04:58:17.574Z,93.39
2023-03-22T04:59:17.567Z,93.39
2023-03-22T05:00:17.579Z,93.39
2023-03-22T05:01:17.644Z,93.39
2023-03-22T05:02:17.516Z,93.39
2023-03-22T05:03:17.544Z,93.39
2023-03-22T05:04:17.510Z,93.39
2023-03-22T05:05:17.492Z,93.49
2023-03-22T05:06:17.493Z,93.60
2023-03-22T05:07:17.469Z,93.70
2023-03-22T05:08:17.455Z,93.80
2023-03-22T05:09:17.470Z,93.80
2023-03-22T05:10:17.449Z,93.90
2023-03-22T05:11:17.414Z,93.90
2023-03-22T05:12:17.408Z,94.01
2023-03-22T05:13:17.408Z,93.90
2023-03-22T05:14:17.393Z,94.01
2023-03-22T05:15:17.403Z,93.90
2023-03-22T05:16:17.441Z,93.90
2023-03-22T05:17:17.350Z,93.80
2023-03-22T05:18:17.304Z,93.70
2023-03-22T05:19:17.358Z,93.70
2023-03-22T05:20:17.287Z,93.60
2023-03-22T05:21:17.293Z,93.60
2023-03-22T05:22:17.282Z,93.60
2023-03-22T05:23:17.252Z,93.70
2023-03-22T05:24:17.260Z,93.80
2023-03-22T05:25:17.246Z,93.80
2023-03-22T05:26:17.248Z,93.80
2023-03-22T05:27:17.241Z,93.90
2023-03-22T05:28:17.205Z,93.90
2023-03-22T05:29:17.179Z,93.90
2023-03-22T05:30:17.177Z,94.01
2023-03-22T05:31:17.163Z,94.01
2023-03-22T05:32:17.171Z,94.01
2023-03-22T05:33:17.116Z,94.01
2023-03-22T05:34:17.120Z,94.01
2023-03-22T05:35:17.259Z,94.11
2023-03-22T05:36:17.086Z,94.07
2023-03-22T05:37:17.148Z,94.07
2023-03-22T05:38:17.075Z,94.07
2023-03-22T05:39:17.076Z,94.07
2023-03-22T05:40:17.042Z,94.07
2023-03-22T05:41:17.052Z,94.07
2023-03-22T05:42:17.023Z,94.07
2023-03-22T05:43:17.026Z,94.07
2023-03-22T05:44:17.007Z,94.07
2023-03-22T05:45:16.999Z,93.96
2023-03-22T05:46:17.002Z,93.96
2023-03-22T05:47:16.995Z,93.96
2023-03-22T05:48:17.016Z,93.96
2023-03-22T05:49:16.941Z,93.96
2023-03-22T05:50:16.909Z,93.86
2023-03-22T05:51:16.921Z,93.86
2023-03-22T05:52:16.884Z,93.86
2023-03-22T05:53:16.896Z,93.76
2023-03-22T05:54:16.840Z,93.71
2023-03-22T05:55:16.846Z,93.66
2023-03-22T05:56:16.836Z,93.62
2023-03-22T05:57:16.822Z,93.62
2023-03-22T05:58:16.788Z,93.51
2023-03-22T05:59:16.814Z,93.51
2023-03-22T06:00:16.763Z,93.51
2023-03-22T06:01:16.803Z,93.51
2023-03-22T06:02:16.753Z,93.62
2023-03-22T06:03:17.069Z,93.62
2023-03-22T06:04:16.751Z,93.62
2023-03-22T06:05:16.726Z,93.62
2023-03-22T06:06:16.753Z,93.62
2023-03-22T06:07:16.703Z,93.51
2023-03-22T06:08:16.664Z,93.51
2023-03-22T06:09:17.983Z,93.51
2023-03-22T06:10:16.692Z,93.41
2023-03-22T06:11:16.624Z,93.30
2023-03-22T06:12:16.612Z,93.26
2023-03-22T06:13:16.625Z,93.26
2023-03-22T06:14:16.609Z,93.26
2023-03-22T06:15:16.589Z,93.26
2023-03-22T06:16:16.660Z,93.16
2023-03-22T06:17:16.540Z,93.16
2023-03-22T06:18:16.558Z,93.16
2023-03-22T06:19:16.537Z,93.06
2023-03-22T06:20:16.539Z,93.06
2023-03-22T06:21:16.514Z,93.06
2023-03-22T06:22:16.508Z,92.96
2023-03-22T06:23:16.489Z,92.96
2023-03-22T06:24:16.524Z,92.96
2023-03-22T06:25:16.461Z,92.96
2023-03-22T06:26:16.452Z,92.96
2023-03-22T06:27:16.455Z,92.96
2023-03-22T06:28:16.419Z,92.85
2023-03-22T06:29:16.380Z,92.75
2023-03-22T06:30:16.402Z,92.75
2023-03-22T06:31:16.461Z,92.65
2023-03-22T06:32:16.938Z,92.65
2023-03-22T06:33:16.335Z,92.50
2023-03-22T06:34:16.325Z,92.50
2023-03-22T06:35:16.309Z,92.50
2023-03-22T06:36:16.299Z,92.50
2023-03-22T06:37:16.320Z,92.50
2023-03-22T06:38:16.319Z,92.50
2023-03-22T06:39:16.256Z,92.40
2023-03-22T06:40:16.265Z,92.40
2023-03-22T06:41:16.211Z,92.30
2023-03-22T06:42:17.230Z,92.40
2023-03-22T06:43:16.202Z,92.40
2023-03-22T06:44:16.219Z,92.30
2023-03-22T06:45:16.157Z,92.19
2023-03-22T06:46:16.337Z,92.25
2023-03-22T06:47:16.181Z,92.05
2023-03-22T06:48:16.204Z,91.95
2023-03-22T06:49:16.132Z,91.85
2023-03-22T06:50:16.108Z,91.74
2023-03-22T06:51:16.105Z,91.85
2023-03-22T06:52:16.112Z,91.95
2023-03-22T06:53:16.112Z,91.85
2023-03-22T06:54:16.054Z,91.85
2023-03-22T06:55:16.056Z,91.64
2023-03-22T06:56:16.021Z,91.54
2023-03-22T06:57:15.991Z,91.39
2023-03-22T06:58:16.043Z,91.29
2023-03-22T06:59:15.991Z,91.29
2023-03-22T07:00:15.977Z,91.09
2023-03-22T07:01:15.986Z,90.99
2023-03-22T07:02:15.942Z,90.88
2023-03-22T07:03:15.942Z,90.78
2023-03-22T07:04:16.009Z,90.88
2023-03-22T07:05:15.894Z,90.78
2023-03-22T07:06:15.913Z,90.68
2023-03-22T07:07:15.870Z,90.58
2023-03-22T07:08:15.993Z,90.68
2023-03-22T07:09:15.872Z,90.68
2023-03-22T07:10:15.848Z,90.68
2023-03-22T07:11:15.844Z,90.58
2023-03-22T07:12:15.814Z,90.58
2023-03-22T07:13:15.837Z,90.37
2023-03-22T07:14:15.784Z,90.37
2023-03-22T07:15:15.794Z,90.47
2023-03-22T07:16:17.089Z,90.37
2023-03-22T07:17:15.737Z,90.37
2023-03-22T07:18:15.754Z,90.27
2023-03-22T07:19:15.799Z,90.27
2023-03-22T07:20:15.714Z,89.97
2023-03-22T07:21:15.711Z,89.86
2023-03-22T07:22:15.707Z,89.72
2023-03-22T07:23:15.671Z,89.82
2023-03-22T07:24:15.690Z,89.51
2023-03-22T07:25:15.669Z,89.41
2023-03-22T07:26:15.664Z,89.31
2023-03-22T07:27:23.218Z,89.17
2023-03-22T07:28:17.405Z,89.06
2023-03-22T07:29:15.578Z,89.06
2023-03-22T07:30:15.621Z,88.96
2023-03-22T07:31:15.583Z,88.71
2023-03-22T07:32:15.638Z,88.61
2023-03-22T07:33:15.565Z,88.51
2023-03-22T07:34:15.558Z,88.20
2023-03-22T07:35:15.526Z,87.70
2023-03-22T07:36:15.505Z,87.45
2023-03-22T07:37:15.479Z,87.35
2023-03-22T07:38:15.549Z,87.24
2023-03-22T07:39:15.488Z,87.14
2023-03-22T07:40:15.675Z,86.80
2023-03-22T07:41:15.451Z,86.39
2023-03-22T07:42:15.409Z,86.15
2023-03-22T07:43:15.418Z,85.74
2023-03-22T07:44:18.215Z,85.53
2023-03-22T07:45:15.496Z,84.61
2023-03-22T07:46:15.426Z,84.31
2023-03-22T07:47:15.337Z,83.49
2023-03-22T07:48:15.434Z,83.80
2023-03-22T07:49:15.351Z,84.11
2023-03-22T07:50:15.348Z,84.20
2023-03-22T07:51:15.311Z,84.20
2023-03-22T07:52:15.339Z,84.41
2023-03-22T07:53:15.293Z,84.41
2023-03-22T07:54:30.522Z,84.31
2023-03-22T07:55:16.280Z,84.41
2023-03-22T07:56:15.275Z,84.31
2023-03-22T07:57:15.244Z,84.34
2023-03-22T07:58:15.245Z,84.45
2023-03-22T07:59:15.262Z,83.94
2023-03-22T08:00:15.451Z,83.33
2023-03-22T08:01:15.200Z,83.33
2023-03-22T08:02:15.210Z,83.43
2023-03-22T08:03:15.220Z,83.53
2023-03-22T08:04:15.191Z,83.73
2023-03-22T08:05:15.157Z,83.84
2023-03-22T08:06:15.160Z,84.14
2023-03-22T08:07:15.117Z,84.34
2023-03-22T08:08:15.130Z,84.04
2023-03-22T08:09:15.132Z,83.73
2023-03-22T08:10:15.071Z,83.02
2023-03-22T08:11:15.028Z,82.98
2023-03-22T08:12:15.039Z,82.88
2023-03-22T08:13:15.059Z,82.57
2023-03-22T08:14:15.960Z,81.11
2023-03-22T08:15:14.976Z,81.11
2023-03-22T08:16:15.072Z,81.01
2023-03-22T08:17:14.975Z,81.11
2023-03-22T08:18:15.097Z,80.70
2023-03-22T08:19:14.919Z,80.70
2023-03-22T08:20:14.953Z,80.50
2023-03-22T08:21:14.956Z,80.56
2023-03-22T08:22:14.929Z,80.46
2023-03-22T08:23:14.944Z,80.05
2023-03-22T08:24:14.870Z,80.87
2023-03-22T08:25:14.881Z,79.85
2023-03-22T08:26:14.848Z,80.05
2023-03-22T08:27:14.851Z,80.56
2023-03-22T08:28:14.891Z,80.56
2023-03-22T08:29:14.821Z,80.83
2023-03-22T08:30:14.834Z,80.11
2023-03-22T08:31:15.389Z,79.91
2023-03-22T08:32:14.819Z,78.89
2023-03-22T08:33:14.805Z,79.20
2023-03-22T08:34:14.753Z,79.71
2023-03-22T08:35:14.722Z,79.41
2023-03-22T08:36:14.735Z,79.30
2023-03-22T08:37:14.748Z,78.89
2023-03-22T08:38:14.695Z,78.49
2023-03-22T08:39:14.697Z,78.69
2023-03-22T08:40:14.793Z,78.39
2023-03-22T08:41:14.642Z,77.64
2023-03-22T08:42:14.643Z,77.64
2023-03-22T08:43:14.634Z,77.40
2023-03-22T08:44:14.632Z,75.16
2023-03-22T08:45:14.603Z,74.15
2023-03-22T08:46:14.675Z,73.02
2023-03-22T08:47:14.621Z,73.39
2023-03-22T08:48:14.629Z,71.67
2023-03-22T08:49:14.551Z,71.06
2023-03-22T08:50:14.566Z,70.45
2023-03-22T08:51:14.536Z,69.77
2023-03-22T08:52:14.562Z,69.87
2023-03-22T08:53:14.518Z,69.36
2023-03-22T08:54:14.525Z,70.07
2023-03-22T08:55:14.454Z,69.67
2023-03-22T08:56:14.494Z,70.48
2023-03-22T08:57:14.439Z,70.68
2023-03-22T08:58:14.428Z,70.48
2023-03-22T08:59:14.456Z,70.25
2023-03-22T09:00:14.446Z,70.45
2023-03-22T09:01:14.432Z,69.94
2023-03-22T09:02:14.518Z,70.14
2023-03-22T09:03:14.418Z,69.94
2023-03-22T09:04:14.430Z,70.35
2023-03-22T09:05:14.368Z,69.94
2023-03-22T09:06:14.365Z,69.02
2023-03-22T09:07:14.319Z,69.26
2023-03-22T09:08:19.162Z,69.46
2023-03-22T09:09:15.275Z,69.06
2023-03-22T09:10:14.316Z,69.87
2023-03-22T09:11:15.641Z,69.29
2023-03-22T09:12:14.361Z,70.10
2023-03-22T09:13:14.262Z,70.82
2023-03-22T09:14:14.245Z,70.89
2023-03-22T09:15:14.246Z,69.57
2023-03-22T09:16:14.256Z,70.68
2023-03-22T09:17:14.187Z,70.14
2023-03-22T09:18:14.223Z,68.92
2023-03-22T09:19:14.187Z,69.53
2023-03-22T09:20:14.166Z,69.43
2023-03-22T09:21:14.142Z,69.81
2023-03-22T09:22:14.138Z,70.04
2023-03-22T09:23:14.128Z,69.94
2023-03-22T09:24:14.090Z,69.33
2023-03-22T09:25:14.065Z,68.82
2023-03-22T09:26:14.109Z,69.13
2023-03-22T09:27:14.036Z,68.92
2023-03-22T09:28:14.108Z,69.84
2023-03-22T09:29:14.020Z,69.53
2023-03-22T09:30:14.011Z,70.35
2023-03-22T09:31:14.082Z,70.42
2023-03-22T09:32:14.010Z,70.92
2023-03-22T09:33:13.972Z,71.12
2023-03-22T09:34:13.985Z,69.20
2023-03-22T09:35:13.930Z,69.81
2023-03-22T09:36:13.973Z,69.50
2023-03-22T09:37:13.964Z,69.91
2023-03-22T09:38:13.962Z,69.40
2023-03-22T09:39:13.934Z,69.60
2023-03-22T09:40:13.901Z,69.81
2023-03-22T09:41:13.870Z,69.50
2023-03-22T09:42:13.888Z,68.28
2023-03-22T09:43:13.861Z,68.79
2023-03-22T09:44:13.857Z,68.79
2023-03-22T09:45:13.820Z,69.40
2023-03-22T09:46:13.849Z,69.40
2023-03-22T09:47:13.779Z,69.81
2023-03-22T09:48:13.868Z,67.97
2023-03-22T09:49:13.783Z,68.89
2023-03-22T09:50:13.761Z,69.40
2023-03-22T09:51:13.755Z,69.40
2023-03-22T09:52:13.867Z,68.89
2023-03-22T09:53:13.729Z,68.69
2023-03-22T09:54:13.704Z,69.09
2023-03-22T09:55:13.735Z,69.40
2023-03-22T09:56:13.688Z,70.11
2023-03-22T09:57:13.686Z,70.35
2023-03-22T09:58:13.741Z,70.14
2023-03-22T09:59:13.621Z,70.14
2023-03-22T10:00:13.608Z,70.45
2023-03-22T10:01:13.750Z,69.53
2023-03-22T10:02:13.674Z,70.04
2023-03-22T10:03:13.566Z,70.04
2023-03-22T10:04:13.644Z,69.46
2023-03-22T10:05:13.531Z,69.46
2023-03-22T10:06:13.574Z,69.36
2023-03-22T10:07:13.549Z,69.87
2023-03-22T10:08:13.535Z,70.18
2023-03-22T10:09:13.487Z,70.07
2023-03-22T10:10:13.512Z,70.28
2023-03-22T10:11:13.477Z,70.18
2023-03-22T10:12:13.500Z,70.68
2023-03-22T10:13:13.464Z,70.58
2023-03-22T10:14:13.436Z,71.30
2023-03-22T10:15:13.396Z,70.89
2023-03-22T10:16:13.540Z,70.38
2023-03-22T10:17:13.391Z,70.28
2023-03-22T10:18:13.382Z,70.18
2023-03-22T10:19:13.404Z,69.77
2023-03-22T10:20:13.341Z,70.07
2023-03-22T10:21:13.377Z,70.79
2023-03-22T10:22:13.357Z,71.40
2023-03-22T10:23:13.305Z,70.68
2023-03-22T10:24:13.315Z,70.48
2023-03-22T10:25:13.276Z,70.18
2023-03-22T10:26:13.285Z,70.28
2023-03-22T10:27:13.923Z,69.87
2023-03-22T10:28:13.224Z,69.67
2023-03-22T10:29:13.303Z,69.77
2023-03-22T10:30:13.205Z,69.97
2023-03-22T10:31:13.271Z,70.07
2023-03-22T10:32:13.214Z,70.18
2023-03-22T10:33:13.173Z,70.99
2023-03-22T10:34:13.185Z,69.87
2023-03-22T10:35:13.213Z,69.26
2023-03-22T10:36:13.155Z,70.07
2023-03-22T10:37:13.125Z,69.74
2023-03-22T10:38:13.092Z,70.45
2023-03-22T10:39:14.532Z,70.65
2023-03-22T10:40:13.129Z,70.75
2023-03-22T10:41:13.073Z,70.86
2023-03-22T10:42:13.080Z,70.35
2023-03-22T10:43:13.088Z,70.14
2023-03-22T10:44:13.013Z,70.14
2023-03-22T10:45:13.079Z,70.04
2023-03-22T10:46:13.009Z,70.65
2023-03-22T10:47:12.992Z,69.74
2023-03-22T10:48:13.094Z,69.74
2023-03-22T10:49:12.970Z,70.35
2023-03-22T10:50:12.969Z,69.53
2023-03-22T10:51:12.954Z,70.04
2023-03-22T10:52:12.935Z,69.94
2023-03-22T10:53:12.905Z,70.14
2023-03-22T10:54:12.913Z,69.84
2023-03-22T10:55:12.913Z,69.64
2023-03-22T10:56:12.900Z,69.02
2023-03-22T10:57:12.873Z,69.94
2023-03-22T10:58:12.845Z,70.42
2023-03-22T10:59:12.824Z,69.53
2023-03-22T11:00:12.855Z,70.14
2023-03-22T11:01:13.116Z,69.13
2023-03-22T11:02:12.922Z,69.20
2023-03-22T11:03:12.853Z,69.53
2023-03-22T11:04:12.789Z,69.30
2023-03-22T11:05:12.779Z,70.11
2023-03-22T11:06:12.786Z,70.72
2023-03-22T11:07:12.754Z,70.82
2023-03-22T11:08:12.727Z,70.21
2023-03-22T11:09:12.764Z,69.64
2023-03-22T11:10:12.796Z,69.53
2023-03-22T11:11:12.683Z,69.74
2023-03-22T11:12:12.643Z,70.11
2023-03-22T11:13:12.646Z,69.53
2023-03-22T11:14:12.662Z,69.94
2023-03-22T11:15:12.678Z,69.94
2023-03-22T11:16:12.740Z,69.43
2023-03-22T11:17:12.653Z,69.64
2023-03-22T11:18:12.578Z,68.82
2023-03-22T11:19:12.600Z,68.82
2023-03-22T11:20:12.595Z,69.33
2023-03-22T11:21:12.547Z,68.52
2023-03-22T11:22:12.579Z,68.52
2023-03-22T11:23:12.522Z,68.11
2023-03-22T11:24:12.568Z,68.52
2023-03-22T11:25:12.525Z,68.11
2023-03-22T11:26:12.470Z,69.23
2023-03-22T11:27:12.490Z,68.41
2023-03-22T11:28:12.457Z,67.91
2023-03-22T11:29:12.441Z,68.52
2023-03-22T11:30:12.435Z,68.52
2023-03-22T11:31:12.411Z,68.72
2023-03-22T11:32:12.434Z,68.11
2023-03-22T11:33:12.471Z,68.11
2023-03-22T11:34:12.435Z,68.01
2023-03-22T11:35:12.384Z,67.91
2023-03-22T11:36:12.375Z,67.71
2023-03-22T11:37:13.381Z,66.69
2023-03-22T11:38:12.301Z,68.32
2023-03-22T11:39:12.329Z,66.99
2023-03-22T11:40:12.317Z,68.01
2023-03-22T11:41:12.326Z,68.01
2023-03-22T11:42:12.276Z,68.11
2023-03-22T11:43:12.260Z,68.52
2023-03-22T11:44:12.266Z,68.32
2023-03-22T11:45:12.259Z,67.40
2023-03-22T11:46:12.437Z,67.60
2023-03-22T11:47:12.234Z,66.79
2023-03-22T11:48:12.355Z,67.80
2023-03-22T11:49:12.250Z,67.94
2023-03-22T11:50:12.205Z,68.04
2023-03-22T11:51:12.459Z,67.43
2023-03-22T11:52:12.257Z,67.33
2023-03-22T11:53:12.119Z,67.22
2023-03-22T11:54:12.116Z,67.43
2023-03-22T11:55:12.117Z,67.63
2023-03-22T11:56:12.128Z,67.22
2023-03-22T11:57:12.076Z,66.82
2023-03-22T11:58:12.093Z,66.92
2023-03-22T11:59:12.069Z,66.52
2023-03-22T12:00:12.058Z,67.83
2023-03-22T12:01:12.045Z,67.13
2023-03-22T12:02:12.038Z,66.52
2023-03-22T12:03:12.105Z,67.33
2023-03-22T12:04:12.055Z,67.63
2023-03-22T12:05:12.125Z,66.52
2023-03-22T12:06:12.034Z,66.72
2023-03-22T12:07:11.976Z,67.13
2023-03-22T12:08:19.481Z,66.82
2023-03-22T12:09:19.012Z,67.43
2023-03-22T12:10:11.910Z,67.33
2023-03-22T12:11:11.927Z,66.61
2023-03-22T12:12:11.933Z,66.52
2023-03-22T12:13:11.859Z,67.33
2023-03-22T12:14:11.829Z,67.13
2023-03-22T12:15:11.832Z,66.21
2023-03-22T12:16:11.922Z,66.49
2023-03-22T12:17:11.858Z,66.69
2023-03-22T12:18:11.825Z,67.50
2023-03-22T12:19:11.779Z,68.11
2023-03-22T12:20:11.845Z,68.62
2023-03-22T12:21:11.764Z,67.60
2023-03-22T12:22:11.776Z,67.94
2023-03-22T12:23:11.727Z,67.13
2023-03-22T12:24:11.700Z,67.94
2023-03-22T12:25:11.708Z,67.74
2023-03-22T12:26:11.731Z,67.53
2023-03-22T12:27:11.714Z,67.22
2023-03-22T12:28:11.676Z,67.83
2023-03-22T12:29:11.670Z,67.74
2023-03-22T12:30:11.657Z,68.14
2023-03-22T12:31:11.696Z,68.04
2023-03-22T12:32:11.610Z,68.55
2023-03-22T12:33:11.694Z,69.26
2023-03-22T12:34:11.570Z,68.75
2023-03-22T12:35:34.723Z,69.16
2023-03-22T12:36:12.612Z,68.85
2023-03-22T12:37:11.549Z,68.68
2023-03-22T12:38:11.517Z,69.19
2023-03-22T12:39:11.561Z,69.80
2023-03-22T12:40:11.516Z,69.49
2023-03-22T12:41:11.528Z,69.29
2023-03-22T12:42:11.511Z,69.09
2023-03-22T12:43:11.505Z,69.49
2023-03-22T12:44:11.460Z,69.90
2023-03-22T12:45:11.461Z,69.40
2023-03-22T12:46:11.455Z,69.80
2023-03-22T12:47:11.428Z,68.99
2023-03-22T12:48:11.519Z,69.09
2023-03-22T12:49:11.448Z,69.49
2023-03-22T12:50:11.382Z,68.88
2023-03-22T12:51:11.389Z,68.88
2023-03-22T12:52:11.370Z,68.68